Time;durP1;ratioP1;P1;durP2;ratioP2;P2;SDS_P1;SDS_P2;PMS_P1;PMS_P2;Temp;Humidity;BMP_temperature;BMP_pressure;BME280_temperature;BME280_humidity;BME280_pressure;Samples;Min_cycle;Max_cycle;Signal;HPM_P1;HPM_P2
2024/03/24 00:01:26;;;;;;;12.57;2.88;;;19.20;73.40;;;;;;5012178;28;20018;-67
2024/03/24 00:03:52;;;;;;;9.02;1.80;;;19.20;73.20;;;;;;5012906;28;20026;-67
2024/03/24 00:06:18;;;;;;;4.40;1.95;;;19.20;73.10;;;;;;5012831;28;20026;-67
2024/03/24 00:08:43;;;;;;;3.28;1.63;;;19.20;73.00;;;;;;5012694;28;20038;-67
2024/03/24 00:11:09;;;;;;;7.07;2.00;;;19.20;72.80;;;;;;5011793;28;20029;-67
2024/03/24 00:13:35;;;;;;;5.50;2.10;;;19.20;72.80;;;;;;5011811;28;20053;-68
2024/03/24 00:16:02;;;;;;;6.40;1.88;;;19.20;73.00;;;;;;5012194;28;20026;-67
2024/03/24 00:18:28;;;;;;;5.35;1.50;;;19.20;73.20;;;;;;5012101;28;20022;-68
2024/03/24 00:20:53;;;;;;;3.50;1.25;;;19.20;73.20;;;;;;5014191;28;20512;-69
2024/03/24 00:23:19;;;;;;;8.35;2.38;;;19.20;73.10;;;;;;5013360;28;20026;-69
2024/03/24 00:25:45;;;;;;;4.20;1.40;;;19.20;73.20;;;;;;5017471;28;20076;-68
2024/03/24 00:28:10;;;;;;;3.20;1.63;;;19.20;73.00;;;;;;5024229;28;20030;-68
2024/03/24 00:30:36;;;;;;;4.78;1.85;;;19.20;73.00;;;;;;5018979;28;20495;-67
2024/03/24 00:33:02;;;;;;;5.18;1.75;;;19.20;72.90;;;;;;5020413;28;20485;-68
2024/03/24 00:35:28;;;;;;;5.70;1.55;;;19.20;72.80;;;;;;5020065;28;20026;-67
2024/03/24 00:37:54;;;;;;;6.45;2.13;;;19.20;72.70;;;;;;5019217;28;20045;-67
2024/03/24 00:40:19;;;;;;;4.82;1.58;;;19.20;73.10;;;;;;5014542;28;20021;-67
2024/03/24 00:42:45;;;;;;;3.40;1.48;;;19.20;73.00;;;;;;5010877;28;20148;-69
2024/03/24 00:45:10;;;;;;;2.58;1.35;;;19.20;73.00;;;;;;4993806;28;20069;-69
2024/03/24 00:47:36;;;;;;;4.68;1.95;;;19.20;73.40;;;;;;5011340;28;20113;-70
2024/03/24 00:50:03;;;;;;;8.32;1.77;;;19.20;73.50;;;;;;5010976;28;20043;-70
2024/03/24 00:52:28;;;;;;;3.00;1.35;;;19.20;73.60;;;;;;5010616;28;20057;-70
2024/03/24 00:54:54;;;;;;;6.72;1.63;;;19.30;73.70;;;;;;5011234;28;20510;-70
2024/03/24 00:57:20;;;;;;;7.32;1.92;;;19.20;73.60;;;;;;5010872;28;20022;-70
2024/03/24 00:59:45;;;;;;;7.07;1.92;;;19.20;73.80;;;;;;5011101;28;20022;-69
2024/03/24 01:02:11;;;;;;;3.63;1.15;;;19.20;73.90;;;;;;5010505;28;20030;-70
2024/03/24 01:04:36;;;;;;;4.03;1.65;;;19.30;74.00;;;;;;5011040;28;20091;-70
2024/03/24 01:07:03;;;;;;;4.75;1.23;;;19.20;74.00;;;;;;5010936;28;20053;-69
2024/03/24 01:09:29;;;;;;;5.38;2.25;;;19.20;74.00;;;;;;5011011;28;20434;-72
2024/03/24 01:11:54;;;;;;;3.80;1.30;;;19.20;74.20;;;;;;5010181;28;20473;-70
2024/03/24 01:14:20;;;;;;;2.97;1.50;;;19.30;74.20;;;;;;5010837;28;20080;-70
2024/03/24 01:16:45;;;;;;;4.43;1.67;;;19.30;74.30;;;;;;5010770;28;20014;-70
2024/03/24 01:19:11;;;;;;;2.60;1.30;;;19.30;74.40;;;;;;5010995;28;20032;-69
2024/03/24 01:21:37;;;;;;;2.10;1.10;;;19.20;74.40;;;;;;5009676;28;20088;-71
2024/03/24 01:24:03;;;;;;;4.63;1.30;;;19.30;74.50;;;;;;5010563;28;20038;-69
2024/03/24 01:26:29;;;;;;;2.75;1.13;;;19.30;74.60;;;;;;5010732;28;20037;-71
2024/03/24 01:28:55;;;;;;;3.92;1.40;;;19.30;74.60;;;;;;5010723;28;20044;-71
2024/03/24 01:31:20;;;;;;;4.45;1.50;;;19.30;74.50;;;;;;4991973;28;20124;-66
2024/03/24 01:33:46;;;;;;;5.35;1.42;;;19.30;74.50;;;;;;5010362;28;20029;-66
2024/03/24 01:36:12;;;;;;;2.97;1.00;;;19.30;74.70;;;;;;5010297;28;20026;-68
2024/03/24 01:38:37;;;;;;;4.32;1.52;;;19.30;74.70;;;;;;5010433;28;20489;-66
2024/03/24 01:41:03;;;;;;;2.75;1.15;;;19.30;74.70;;;;;;5009725;28;20036;-68
2024/03/24 01:43:29;;;;;;;3.20;1.00;;;19.30;74.70;;;;;;5010166;28;20128;-67
2024/03/24 01:45:54;;;;;;;2.65;1.00;;;19.30;74.60;;;;;;5010452;28;20030;-68
2024/03/24 01:48:20;;;;;;;3.38;1.40;;;19.30;74.60;;;;;;5010240;28;20072;-68
2024/03/24 01:50:46;;;;;;;7.20;1.40;;;19.30;74.70;;;;;;5009803;28;20018;-68
2024/03/24 01:53:12;;;;;;;3.72;1.30;;;19.30;74.60;;;;;;5009717;28;20101;-69
2024/03/24 01:55:38;;;;;;;6.93;2.15;;;19.30;74.60;;;;;;5009947;28;20036;-68
2024/03/24 01:58:04;;;;;;;4.72;1.58;;;19.30;74.50;;;;;;5010169;28;20030;-67
2024/03/24 02:00:31;;;;;;;2.95;1.15;;;19.30;74.60;;;;;;5009800;28;20068;-67
2024/03/24 02:02:56;;;;;;;3.40;1.23;;;19.30;74.70;;;;;;5009553;28;20026;-67
2024/03/24 02:05:26;;;;;;;3.65;1.45;;;19.30;74.80;;;;;;5009765;28;20030;-67
2024/03/24 02:07:52;;;;;;;5.35;1.30;;;19.30;74.80;;;;;;5010221;28;20024;-68
2024/03/24 02:10:18;;;;;;;3.83;1.45;;;19.30;74.90;;;;;;5012526;28;20195;-68
2024/03/24 02:12:44;;;;;;;2.10;1.10;;;19.30;74.90;;;;;;5033297;28;20021;-67
2024/03/24 02:15:13;;;;;;;3.15;1.17;;;19.30;75.00;;;;;;5033901;28;20037;-68
2024/03/24 02:17:39;;;;;;;3.85;1.52;;;19.30;75.10;;;;;;5033699;28;20041;-66
2024/03/24 02:20:06;;;;;;;4.30;1.40;;;19.30;75.20;;;;;;5033398;28;20538;-70
2024/03/24 02:22:34;;;;;;;4.45;1.10;;;19.30;75.30;;;;;;5056231;23;20100;-66
2024/03/24 02:25:00;;;;;;;11.30;2.05;;;19.30;75.60;;;;;;5034782;28;20105;-65
2024/03/24 02:27:25;;;;;;;9.70;1.77;;;19.30;75.60;;;;;;5034828;28;20113;-67
2024/03/24 02:29:51;;;;;;;15.77;2.00;;;19.30;75.50;;;;;;5034610;28;20029;-67
2024/03/24 02:32:16;;;;;;;9.20;2.15;;;19.30;75.60;;;;;;5033817;28;20033;-68
2024/03/24 02:34:42;;;;;;;6.10;1.42;;;19.30;75.50;;;;;;5034819;28;20038;-67
2024/03/24 02:37:07;;;;;;;15.75;2.15;;;19.30;75.50;;;;;;5034590;28;20067;-68
2024/03/24 02:39:33;;;;;;;5.32;1.88;;;19.30;75.40;;;;;;5034439;28;20033;-69
2024/03/24 02:41:59;;;;;;;8.20;1.88;;;19.30;75.50;;;;;;5033714;28;20443;-68
2024/03/24 02:44:25;;;;;;;10.07;1.80;;;19.40;75.60;;;;;;5034827;28;20056;-67
2024/03/24 02:46:52;;;;;;;9.35;1.40;;;19.40;75.70;;;;;;5034359;28;20151;-67
2024/03/24 02:49:17;;;;;;;12.23;2.22;;;19.40;75.70;;;;;;5034351;28;20398;-66
2024/03/24 02:51:43;;;;;;;5.15;1.70;;;19.40;75.60;;;;;;5033592;28;20023;-67
2024/03/24 02:54:09;;;;;;;7.97;1.83;;;19.40;75.80;;;;;;5033027;28;20025;-68
2024/03/24 02:56:35;;;;;;;7.85;1.70;;;19.30;75.70;;;;;;5034279;28;20059;-68
2024/03/24 02:59:00;;;;;;;5.22;1.55;;;19.30;75.80;;;;;;5034311;28;20088;-68
2024/03/24 03:01:27;;;;;;;6.78;2.00;;;19.40;75.70;;;;;;5033415;28;20026;-68
2024/03/24 03:03:52;;;;;;;8.18;1.67;;;19.30;75.70;;;;;;5034024;28;20037;-67
2024/03/24 03:06:18;;;;;;;7.75;1.83;;;19.40;75.80;;;;;;5033985;28;20037;-67
2024/03/24 03:08:44;;;;;;;5.75;1.40;;;19.30;75.70;;;;;;5034107;28;20021;-67
2024/03/24 03:11:10;;;;;;;2.55;1.52;;;19.40;75.70;;;;;;5033458;28;20025;-66
2024/03/24 03:13:35;;;;;;;2.75;1.38;;;19.40;75.70;;;;;;5033757;28;20037;-66
2024/03/24 03:16:01;;;;;;;3.53;1.48;;;19.40;75.70;;;;;;5034156;28;20021;-66
2024/03/24 03:18:26;;;;;;;4.85;1.77;;;19.40;75.80;;;;;;5033839;28;20084;-66
2024/03/24 03:20:52;;;;;;;4.25;1.33;;;19.30;75.70;;;;;;5033230;28;20025;-66
2024/03/24 03:23:18;;;;;;;4.97;1.30;;;19.30;75.80;;;;;;5033463;28;20029;-68
2024/03/24 03:25:43;;;;;;;8.55;1.15;;;19.30;75.80;;;;;;5034006;28;20070;-66
2024/03/24 03:28:09;;;;;;;5.38;1.58;;;19.30;76.00;;;;;;5033738;28;20033;-67
2024/03/24 03:30:34;;;;;;;3.95;1.42;;;19.40;76.10;;;;;;5033278;28;20025;-67
2024/03/24 03:33:01;;;;;;;3.38;1.40;;;19.40;76.20;;;;;;5015403;28;20053;-66
2024/03/24 03:35:27;;;;;;;4.63;1.67;;;19.40;76.20;;;;;;5033540;28;20033;-68
2024/03/24 03:37:52;;;;;;;4.95;1.58;;;19.40;76.20;;;;;;5033283;28;20021;-67
2024/03/24 03:40:18;;;;;;;3.60;0.93;;;19.30;76.30;;;;;;5033441;28;20022;-68
2024/03/24 03:42:43;;;;;;;8.90;1.83;;;19.40;76.40;;;;;;5032892;28;20033;-67
2024/03/24 03:45:10;;;;;;;5.75;1.35;;;19.30;76.30;;;;;;5033473;28;20117;-67
2024/03/24 03:47:36;;;;;;;3.53;1.27;;;19.40;76.50;;;;;;5033424;28;20100;-67
2024/03/24 03:50:02;;;;;;;8.50;1.63;;;19.40;76.50;;;;;;5015641;28;20116;-67
2024/03/24 03:52:31;;;;;;;2.67;1.10;;;19.30;76.60;;;;;;5032556;28;20033;-66
2024/03/24 03:55:00;;;;;;;5.07;1.30;;;19.40;76.60;;;;;;5032440;28;20013;-67
2024/03/24 03:57:28;;;;;;;6.47;1.38;;;19.30;76.60;;;;;;5033301;28;20100;-67
2024/03/24 03:59:54;;;;;;;3.25;1.13;;;19.30;76.70;;;;;;5033234;28;20028;-65
2024/03/24 04:02:20;;;;;;;4.35;1.25;;;19.30;77.00;;;;;;5032455;28;20029;-65
2024/03/24 04:04:45;;;;;;;4.93;1.35;;;19.40;76.90;;;;;;5033452;28;20026;-66
2024/03/24 04:07:14;;;;;;;7.82;1.35;;;19.40;76.90;;;;;;5015541;28;20592;-67
2024/03/24 04:09:40;;;;;;;5.47;1.40;;;19.40;76.90;;;;;;5033191;28;20392;-66
2024/03/24 04:12:06;;;;;;;4.45;1.70;;;19.40;76.90;;;;;;5032166;28;20136;-69
2024/03/24 04:14:32;;;;;;;6.60;1.23;;;19.40;76.90;;;;;;5033072;28;20062;-71
2024/03/24 04:16:57;;;;;;;5.22;1.40;;;19.40;77.00;;;;;;5014992;28;20053;-68
2024/03/24 04:19:23;;;;;;;4.00;1.02;;;19.40;77.00;;;;;;5032814;28;20022;-68
2024/03/24 04:21:49;;;;;;;6.50;1.90;;;19.30;76.90;;;;;;5032161;28;20033;-67
2024/03/24 04:24:14;;;;;;;4.65;1.25;;;19.40;77.00;;;;;;5032778;28;20063;-69
2024/03/24 04:26:40;;;;;;;7.72;1.70;;;19.40;77.00;;;;;;5015431;28;20025;-69
2024/03/24 04:29:05;;;;;;;5.40;1.10;;;19.40;76.90;;;;;;5032778;28;20028;-70
2024/03/24 04:31:31;;;;;;;3.38;1.30;;;19.40;77.00;;;;;;5031932;28;20118;-69
2024/03/24 04:33:57;;;;;;;7.45;1.63;;;19.30;76.90;;;;;;5015208;28;20022;-67
2024/03/24 04:36:22;;;;;;;5.10;1.23;;;19.40;77.00;;;;;;5036229;28;20195;-68
2024/03/24 04:38:48;;;;;;;2.03;1.25;;;19.30;77.00;;;;;;5036576;28;20131;-68
2024/03/24 04:41:13;;;;;;;7.53;1.33;;;19.40;77.00;;;;;;5038031;28;20032;-69
2024/03/24 04:43:39;;;;;;;4.68;1.58;;;19.40;77.10;;;;;;5046983;28;20040;-68
2024/03/24 04:46:05;;;;;;;2.90;1.15;;;19.40;77.00;;;;;;5046898;28;20026;-68
2024/03/24 04:48:31;;;;;;;5.53;1.30;;;19.40;77.10;;;;;;5048779;28;20032;-68
2024/03/24 04:50:57;;;;;;;6.00;1.15;;;19.40;77.20;;;;;;5047536;28;20025;-68
2024/03/24 04:53:24;;;;;;;5.63;1.50;;;19.40;77.20;;;;;;5043962;28;20033;-65
2024/03/24 04:55:50;;;;;;;4.28;1.77;;;19.40;77.20;;;;;;5037785;28;20025;-68
2024/03/24 04:58:15;;;;;;;8.27;2.00;;;19.30;77.30;;;;;;5032197;28;20025;-68
2024/03/24 05:00:41;;;;;;;4.88;1.23;;;19.40;77.40;;;;;;5031365;28;20548;-68
2024/03/24 05:03:06;;;;;;;6.32;1.75;;;19.40;77.20;;;;;;5031444;28;20026;-68
2024/03/24 05:05:32;;;;;;;7.85;1.98;;;19.40;77.20;;;;;;5031900;28;20025;-67
2024/03/24 05:07:58;;;;;;;6.05;1.48;;;19.40;77.10;;;;;;5031768;28;20029;-67
2024/03/24 05:10:23;;;;;;;5.03;1.35;;;19.40;77.00;;;;;;5031606;28;20148;-68
2024/03/24 05:12:49;;;;;;;15.55;2.42;;;19.30;77.10;;;;;;5031150;28;20148;-72
2024/03/24 05:15:15;;;;;;;9.45;1.58;;;19.40;77.10;;;;;;5031368;28;20477;-68
2024/03/24 05:17:40;;;;;;;10.25;1.83;;;19.40;76.90;;;;;;5031871;28;20021;-69
2024/03/24 05:20:10;;;;;;;5.50;1.85;;;19.40;76.40;;;;;;5031304;28;20382;-69
2024/03/24 05:22:37;;;;;;;17.52;2.40;;;19.40;76.00;;;;;;5011288;28;20727;-68
2024/03/24 05:25:04;;;;;;;7.45;2.38;;;19.40;75.60;;;;;;5011848;28;20030;-67
2024/03/24 05:27:30;;;;;;;10.02;1.25;;;19.40;75.50;;;;;;5011692;28;20497;-69
2024/03/24 05:29:55;;;;;;;15.40;1.95;;;19.40;75.80;;;;;;5011624;28;20030;-70
2024/03/24 05:32:21;;;;;;;13.80;2.08;;;19.40;76.30;;;;;;5010871;28;20034;-68
2024/03/24 05:34:47;;;;;;;12.15;2.10;;;19.40;76.40;;;;;;5012080;28;20036;-69
2024/03/24 05:37:13;;;;;;;11.05;1.77;;;19.40;76.50;;;;;;5011755;28;20018;-66
2024/03/24 05:39:40;;;;;;;11.82;2.00;;;19.40;76.30;;;;;;5011538;28;20448;-69
2024/03/24 05:42:06;;;;;;;8.27;1.83;;;19.40;76.30;;;;;;5010628;28;20022;-69
2024/03/24 05:44:32;;;;;;;10.88;2.20;;;19.40;76.30;;;;;;5010979;28;20084;-67
2024/03/24 05:46:57;;;;;;;12.00;1.67;;;19.40;76.30;;;;;;5011689;28;20021;-67
2024/03/24 05:49:23;;;;;;;7.55;1.63;;;19.40;76.30;;;;;;5011385;28;20026;-67
2024/03/24 05:51:49;;;;;;;8.85;2.15;;;19.40;76.40;;;;;;5010590;28;20468;-70
2024/03/24 05:54:15;;;;;;;13.70;2.75;;;19.40;76.40;;;;;;5011361;28;20076;-74
2024/03/24 05:56:40;;;;;;;5.88;1.50;;;19.40;76.30;;;;;;5011394;28;20030;-73
2024/03/24 05:59:06;;;;;;;7.90;1.95;;;19.40;76.10;;;;;;5011248;28;20030;-73
2024/03/24 06:01:32;;;;;;;3.47;1.30;;;19.40;76.00;;;;;;5010007;28;20077;-72
2024/03/24 06:03:58;;;;;;;10.95;2.13;;;19.40;75.80;;;;;;5011345;28;20026;-72
2024/03/24 06:06:24;;;;;;;13.02;2.25;;;19.50;75.80;;;;;;5011227;28;20076;-73
2024/03/24 06:08:50;;;;;;;7.32;1.92;;;19.50;75.70;;;;;;5011379;28;20489;-73
2024/03/24 06:11:16;;;;;;;6.32;1.45;;;19.50;75.60;;;;;;5010392;28;20048;-69
2024/03/24 06:13:42;;;;;;;13.40;2.78;;;19.50;75.50;;;;;;5011392;28;20037;-71
2024/03/24 06:16:07;;;;;;;5.68;1.45;;;19.50;75.50;;;;;;5011771;28;20018;-70
2024/03/24 06:18:33;;;;;;;3.38;1.33;;;19.50;75.10;;;;;;5011492;28;20026;-69
2024/03/24 06:21:00;;;;;;;11.55;1.42;;;19.50;74.90;;;;;;5010812;28;20080;-70
2024/03/24 06:23:26;;;;;;;3.47;1.00;;;19.50;74.80;;;;;;5011482;28;20375;-70
2024/03/24 06:25:51;;;;;;;4.75;1.33;;;19.50;74.70;;;;;;5018442;28;20030;-70
2024/03/24 06:28:17;;;;;;;3.35;1.67;;;19.50;74.60;;;;;;5019476;28;20451;-70
2024/03/24 06:30:43;;;;;;;4.97;2.05;;;19.50;74.60;;;;;;5018887;28;20083;-70
2024/03/24 06:33:08;;;;;;;2.95;1.60;;;19.50;74.50;;;;;;5012110;28;20504;-70
2024/03/24 06:35:34;;;;;;;5.50;1.58;;;19.50;74.40;;;;;;5013757;28;20028;-70
2024/03/24 06:38:00;;;;;;;3.78;1.42;;;19.50;74.40;;;;;;5017621;28;20029;-70
2024/03/24 06:40:25;;;;;;;7.78;1.35;;;19.50;74.40;;;;;;5016972;28;20030;-69
2024/03/24 06:43:02;;;;;;;9.50;1.75;;;19.50;74.40;;;;;;5012901;28;20072;-69
2024/03/24 06:45:34;;;;;;;17.95;2.42;;;19.50;74.40;;;;;;5013334;28;20025;-66
2024/03/24 06:48:00;;;;;;;9.25;2.00;;;18.80;61.90;;;;;;5012001;28;20030;-66
2024/03/24 06:50:27;;;;;;;8.63;2.28;;;18.10;54.50;;;;;;5011521;28;20057;-66
2024/03/24 06:52:53;;;;;;;6.55;2.03;;;17.60;54.20;;;;;;5010641;28;20098;-65
2024/03/24 06:55:19;;;;;;;5.22;1.75;;;17.00;54.00;;;;;;5010910;28;20123;-66
2024/03/24 06:57:45;;;;;;;8.30;1.58;;;16.90;53.90;;;;;;5014421;28;20018;-65
2024/03/24 07:00:13;;;;;;;5.63;2.20;;;16.90;57.00;;;;;;5014191;28;20078;-70
2024/03/24 07:02:38;;;;;;;11.00;2.38;;;16.80;56.20;;;;;;5013912;28;20080;-72
2024/03/24 07:05:04;;;;;;;8.48;1.42;;;17.20;63.20;;;;;;5014791;28;20489;-72
2024/03/24 07:07:31;;;;;;;10.27;2.28;;;17.50;67.20;;;;;;5014564;28;20030;-71
2024/03/24 07:09:56;;;;;;;6.70;1.73;;;17.80;69.70;;;;;;5014084;28;20040;-72
2024/03/24 07:12:22;;;;;;;4.10;1.10;;;18.00;70.20;;;;;;5013143;28;20484;-72
2024/03/24 07:14:47;;;;;;;5.95;1.40;;;18.20;71.20;;;;;;5013991;28;20026;-72
2024/03/24 07:17:13;;;;;;;7.05;2.00;;;18.40;71.30;;;;;;5014074;28;20022;-71
2024/03/24 07:19:39;;;;;;;15.23;2.13;;;18.50;71.70;;;;;;5014232;28;20398;-68
2024/03/24 07:22:04;;;;;;;9.15;1.75;;;18.50;71.20;;;;;;5015744;28;20033;-70
2024/03/24 07:24:30;;;;;;;8.65;1.85;;;18.60;71.70;;;;;;5015563;28;20521;-69
2024/03/24 07:26:56;;;;;;;20.30;2.67;;;18.70;72.80;;;;;;5012931;28;20022;-69
2024/03/24 07:29:22;;;;;;;16.23;2.80;;;18.80;73.30;;;;;;5012148;28;20105;-70
2024/03/24 07:31:47;;;;;;;15.15;3.08;;;18.90;73.40;;;;;;5011313;28;20101;-70
2024/03/24 07:34:13;;;;;;;14.68;2.63;;;18.90;73.50;;;;;;5011981;28;20421;-70
2024/03/24 07:36:39;;;;;;;10.35;2.83;;;19.00;73.40;;;;;;5011893;28;20033;-69
2024/03/24 07:39:04;;;;;;;6.82;1.90;;;19.00;73.30;;;;;;5011773;28;20037;-70
2024/03/24 07:41:30;;;;;;;9.65;2.58;;;19.00;73.20;;;;;;5011074;28;20109;-70
2024/03/24 07:43:55;;;;;;;15.25;2.25;;;19.00;73.10;;;;;;5013707;28;20108;-70
2024/03/24 07:46:21;;;;;;;11.65;2.30;;;19.00;73.10;;;;;;5013684;28;20501;-70
2024/03/24 07:48:47;;;;;;;7.90;1.83;;;19.00;73.10;;;;;;5013637;28;20113;-70
2024/03/24 07:51:12;;;;;;;8.48;2.05;;;19.10;73.10;;;;;;5013014;28;20029;-70
2024/03/24 07:53:38;;;;;;;8.38;2.00;;;19.10;73.10;;;;;;5013035;28;20040;-70
2024/03/24 07:56:07;;;;;;;9.98;2.53;;;19.10;73.00;;;;;;5013330;28;20014;-69
2024/03/24 07:58:32;;;;;;;8.88;2.47;;;19.10;73.00;;;;;;5015720;28;20026;-70
2024/03/24 08:00:58;;;;;;;12.30;2.20;;;19.20;73.00;;;;;;5012786;28;20398;-69
2024/03/24 08:03:24;;;;;;;6.63;1.65;;;19.20;73.00;;;;;;5013076;28;20065;-70
2024/03/24 08:05:51;;;;;;;7.20;1.45;;;19.20;72.90;;;;;;4995592;28;20026;-70
2024/03/24 08:08:17;;;;;;;5.28;2.08;;;19.20;72.80;;;;;;5012720;28;20543;-70
2024/03/24 08:10:42;;;;;;;8.60;2.13;;;19.20;72.80;;;;;;5012616;28;20070;-70
2024/03/24 08:13:08;;;;;;;7.15;1.95;;;19.30;72.70;;;;;;5016265;28;20451;-69
2024/03/24 08:15:33;;;;;;;7.07;2.08;;;19.30;72.70;;;;;;5024344;28;20531;-69
2024/03/24 08:17:59;;;;;;;10.98;1.50;;;19.20;72.70;;;;;;5014970;28;20021;-70
2024/03/24 08:20:25;;;;;;;4.72;1.73;;;19.30;72.70;;;;;;5032537;28;20393;-69
2024/03/24 08:22:51;;;;;;;9.23;1.90;;;19.30;72.60;;;;;;5055234;23;20128;-68
2024/03/24 08:25:17;;;;;;;4.22;1.52;;;19.40;72.60;;;;;;5052260;28;20588;-67
2024/03/24 08:27:42;;;;;;;7.20;1.70;;;19.30;72.50;;;;;;5052064;28;20036;-67
2024/03/24 08:30:08;;;;;;;5.75;1.23;;;19.40;72.50;;;;;;5051792;28;20024;-68
2024/03/24 08:32:35;;;;;;;3.80;1.77;;;19.40;72.40;;;;;;5051633;28;20029;-67
2024/03/24 08:35:01;;;;;;;5.88;1.17;;;19.40;72.50;;;;;;5052267;28;20028;-68
2024/03/24 08:37:26;;;;;;;5.20;1.88;;;19.40;72.50;;;;;;5052028;28;20025;-68
2024/03/24 08:39:52;;;;;;;4.85;2.08;;;19.40;72.50;;;;;;5051679;28;20028;-68
2024/03/24 08:42:17;;;;;;;6.18;2.15;;;19.40;72.90;;;;;;5060145;28;20070;-69
2024/03/24 08:44:43;;;;;;;5.80;2.38;;;19.40;73.10;;;;;;5072094;28;20021;-68
2024/03/24 08:47:09;;;;;;;8.63;1.90;;;19.40;73.20;;;;;;5072315;28;20054;-68
2024/03/24 08:49:35;;;;;;;5.70;1.63;;;19.40;73.10;;;;;;5072550;28;20428;-68
2024/03/24 08:52:01;;;;;;;7.90;1.92;;;19.40;73.00;;;;;;5071466;28;20100;-69
2024/03/24 08:54:26;;;;;;;7.78;2.05;;;19.40;73.00;;;;;;5071814;28;20053;-68
2024/03/24 08:56:52;;;;;;;7.20;1.65;;;19.40;72.90;;;;;;5071667;28;20091;-67
2024/03/24 08:59:18;;;;;;;5.70;1.40;;;19.40;72.90;;;;;;5071810;28;20024;-67
2024/03/24 09:01:43;;;;;;;7.20;1.63;;;19.40;72.80;;;;;;5070763;28;20020;-68
2024/03/24 09:04:10;;;;;;;8.18;2.47;;;19.40;72.70;;;;;;5071880;28;20101;-68
2024/03/24 09:06:35;;;;;;;5.85;1.35;;;19.40;72.40;;;;;;5071639;28;20100;-67
2024/03/24 09:09:01;;;;;;;5.95;1.98;;;19.40;72.30;;;;;;5071610;28;20124;-69
2024/03/24 09:11:27;;;;;;;7.82;2.15;;;19.40;72.30;;;;;;5067704;28;20449;-68
2024/03/24 09:13:52;;;;;;;6.95;1.95;;;19.40;72.40;;;;;;5050612;28;20039;-67
2024/03/24 09:16:18;;;;;;;5.20;1.60;;;19.40;72.50;;;;;;5051137;28;20055;-67
2024/03/24 09:18:48;;;;;;;7.75;2.03;;;19.40;72.70;;;;;;5050721;28;20496;-68
2024/03/24 09:21:13;;;;;;;5.35;1.60;;;19.40;72.60;;;;;;5050058;28;20493;-67
2024/03/24 09:23:39;;;;;;;8.43;2.55;;;19.40;73.10;;;;;;5050245;28;20048;-69
2024/03/24 09:26:04;;;;;;;4.68;1.38;;;19.40;73.10;;;;;;5050673;28;20025;-68
2024/03/24 09:28:30;;;;;;;8.77;2.60;;;19.40;73.20;;;;;;5050470;28;20057;-68
2024/03/24 09:30:57;;;;;;;12.93;3.03;;;19.50;73.50;;;;;;5050233;28;20025;-68
2024/03/24 09:33:23;;;;;;;30.50;3.80;;;19.50;73.90;;;;;;5049765;28;20070;-71
2024/03/24 09:35:48;;;;;;;19.80;3.33;;;19.50;74.20;;;;;;5050724;28;20025;-66
2024/03/24 09:38:14;;;;;;;25.73;4.28;;;19.50;74.30;;;;;;5050268;28;20025;-70
2024/03/24 09:40:40;;;;;;;20.38;4.18;;;19.50;74.60;;;;;;5049086;28;20067;-69
2024/03/24 09:43:06;;;;;;;22.00;2.90;;;19.50;74.10;;;;;;5049517;28;20025;-69
2024/03/24 09:45:33;;;;;;;13.65;2.63;;;19.50;73.90;;;;;;5048224;28;20032;-68
2024/03/24 09:47:59;;;;;;;14.43;3.03;;;19.60;73.90;;;;;;5049983;28;20061;-67
2024/03/24 09:50:25;;;;;;;13.15;2.80;;;19.60;74.00;;;;;;5049947;28;20542;-67
2024/03/24 09:52:59;;;;;;;18.17;3.03;;;19.60;74.10;;;;;;5048389;28;20029;-67
2024/03/24 09:55:28;;;;;;;11.98;2.70;;;19.60;74.00;;;;;;5049929;28;20365;-67
2024/03/24 09:57:55;;;;;;;20.88;2.80;;;19.70;74.00;;;;;;5049711;28;20043;-68
2024/03/24 10:00:21;;;;;;;24.35;2.67;;;19.70;73.80;;;;;;5049717;28;20505;-66
2024/03/24 10:02:47;;;;;;;12.25;2.70;;;19.70;73.80;;;;;;5052597;28;20570;-66
2024/03/24 10:05:15;;;;;;;16.48;2.40;;;19.70;73.90;;;;;;5048118;28;20037;-66
2024/03/24 10:07:40;;;;;;;9.82;2.60;;;19.70;73.90;;;;;;5049926;28;20044;-68
2024/03/24 10:10:07;;;;;;;8.32;2.35;;;19.70;73.90;;;;;;5069514;28;20484;-70
2024/03/24 10:12:33;;;;;;;13.45;2.85;;;19.70;73.90;;;;;;5063918;28;20503;-66
2024/03/24 10:15:20;;;;;;;10.27;2.95;;;19.70;73.90;;;;;;5066839;28;20028;-66
2024/03/24 10:17:46;;;;;;;11.63;2.17;;;19.70;73.90;;;;;;5070014;28;20044;-68
2024/03/24 10:20:13;;;;;;;7.05;2.30;;;19.70;74.00;;;;;;5068727;28;20016;-65
2024/03/24 10:22:39;;;;;;;9.38;2.33;;;19.70;74.00;;;;;;5033113;28;20045;-66
2024/03/24 10:25:11;;;;;;;9.82;2.50;;;19.70;74.00;;;;;;5029421;28;20397;-65
2024/03/24 10:27:38;;;;;;;9.05;2.70;;;19.70;73.90;;;;;;5029503;28;20415;-66
2024/03/24 10:30:04;;;;;;;11.70;2.45;;;19.70;73.90;;;;;;5029818;28;20064;-65
2024/03/24 10:32:31;;;;;;;11.43;2.65;;;19.70;73.80;;;;;;5031798;28;20381;-68
2024/03/24 10:35:00;;;;;;;8.43;2.78;;;19.70;73.70;;;;;;5034085;28;20013;-66
2024/03/24 10:37:27;;;;;;;9.43;2.83;;;19.70;73.70;;;;;;5046266;28;20013;-68
2024/03/24 10:39:53;;;;;;;11.85;2.65;;;19.70;73.80;;;;;;5053238;28;20037;-66
2024/03/24 10:42:19;;;;;;;8.35;2.15;;;19.60;73.90;;;;;;5052715;28;20096;-68
2024/03/24 10:44:46;;;;;;;6.28;1.90;;;19.60;73.90;;;;;;5053460;28;20017;-67
2024/03/24 10:47:13;;;;;;;11.90;2.63;;;19.70;73.80;;;;;;5053375;28;20025;-69
2024/03/24 10:49:41;;;;;;;12.35;2.10;;;19.60;74.00;;;;;;5053317;28;20032;-69
2024/03/24 10:52:09;;;;;;;13.48;2.85;;;19.60;74.00;;;;;;5052563;28;20109;-69
2024/03/24 10:54:36;;;;;;;7.78;2.15;;;19.70;74.10;;;;;;5052990;28;20037;-71
2024/03/24 10:57:05;;;;;;;18.30;2.65;;;19.60;74.20;;;;;;5053396;28;20393;-69
2024/03/24 10:59:32;;;;;;;7.90;2.10;;;19.70;74.20;;;;;;5053424;28;20025;-68
2024/03/24 11:02:00;;;;;;;9.70;2.13;;;19.70;74.10;;;;;;5052415;28;20025;-67
2024/03/24 11:04:28;;;;;;;8.88;2.38;;;19.60;74.10;;;;;;5053373;28;20108;-69
2024/03/24 11:06:54;;;;;;;8.23;2.47;;;19.70;74.00;;;;;;5052823;28;20036;-69
2024/03/24 11:09:19;;;;;;;11.95;2.92;;;19.60;74.00;;;;;;5053000;28;20048;-68
2024/03/24 11:11:45;;;;;;;14.25;2.70;;;19.70;74.10;;;;;;5052312;28;20496;-70
2024/03/24 11:14:12;;;;;;;14.15;2.92;;;19.70;74.10;;;;;;5053121;28;20469;-71
2024/03/24 11:16:37;;;;;;;14.82;2.33;;;19.70;74.10;;;;;;5053243;28;20116;-69
2024/03/24 11:19:08;;;;;;;11.30;2.50;;;19.60;74.10;;;;;;5052901;28;20100;-68
2024/03/24 11:21:40;;;;;;;10.80;2.35;;;19.70;74.10;;;;;;5034256;28;20021;-68
2024/03/24 11:24:28;;;;;;;6.53;2.45;;;19.60;74.20;;;;;;5052725;28;20510;-68
2024/03/24 11:26:54;;;;;;;6.88;1.90;;;19.60;74.10;;;;;;5052903;28;20443;-69
2024/03/24 11:29:45;;;;;;;11.32;2.30;;;19.70;74.10;;;;;;5052706;28;20100;-68
2024/03/24 11:32:11;;;;;;;4.55;1.80;;;19.60;74.10;;;;;;5052110;28;20032;-68
2024/03/24 11:35:03;;;;;;;6.57;2.72;;;19.70;74.20;;;;;;5052877;28;20032;-68
2024/03/24 11:37:31;;;;;;;10.30;2.25;;;19.60;74.20;;;;;;5052523;28;20457;-69
2024/03/24 11:39:58;;;;;;;13.25;2.75;;;19.60;74.40;;;;;;5052091;28;20096;-70
2024/03/24 11:42:31;;;;;;;12.93;3.40;;;19.60;74.50;;;;;;5050323;28;20488;-68
2024/03/24 11:45:16;;;;;;;7.05;2.00;;;19.60;75.30;;;;;;5053451;28;20017;-69
2024/03/24 11:47:44;;;;;;;9.55;3.00;;;19.60;75.50;;;;;;5053107;28;20064;-71
2024/03/24 11:50:10;;;;;;;6.85;3.15;;;19.60;75.50;;;;;;5053189;28;20032;-66
2024/03/24 11:52:36;;;;;;;11.25;3.17;;;19.60;75.80;;;;;;5052661;28;20028;-68
2024/03/24 11:55:04;;;;;;;11.45;3.13;;;19.60;76.00;;;;;;5053310;28;20021;-67
2024/03/24 11:57:31;;;;;;;8.15;2.53;;;19.60;76.00;;;;;;5053290;28;20456;-67
2024/03/24 11:59:57;;;;;;;9.00;2.53;;;19.60;75.90;;;;;;5035094;28;20025;-68
2024/03/24 12:02:22;;;;;;;12.70;2.53;;;19.60;75.80;;;;;;5052227;28;20079;-68
2024/03/24 12:04:48;;;;;;;9.40;2.47;;;19.60;75.60;;;;;;5052185;28;20021;-67
2024/03/24 12:07:13;;;;;;;11.70;2.83;;;19.60;75.50;;;;;;5052059;28;20017;-69
2024/03/24 12:09:44;;;;;;;12.80;2.15;;;19.60;75.30;;;;;;5051865;28;20032;-67
2024/03/24 12:12:10;;;;;;;11.32;2.97;;;19.60;75.30;;;;;;5050798;28;20492;-68
2024/03/24 12:14:35;;;;;;;12.40;2.95;;;19.50;75.10;;;;;;5051885;28;20086;-69
2024/03/24 12:17:06;;;;;;;11.70;2.83;;;19.60;75.20;;;;;;5052011;28;20021;-69
2024/03/24 12:19:32;;;;;;;13.90;2.95;;;19.60;75.10;;;;;;5052336;28;20097;-69
2024/03/24 12:21:59;;;;;;;13.43;2.53;;;19.60;75.10;;;;;;5051569;28;20037;-66
2024/03/24 12:24:25;;;;;;;8.88;2.30;;;19.60;75.10;;;;;;5052966;28;20071;-69
2024/03/24 12:26:56;;;;;;;5.88;2.50;;;19.60;75.20;;;;;;5052862;28;20028;-70
2024/03/24 12:29:21;;;;;;;10.95;2.67;;;19.60;75.30;;;;;;5052553;28;20025;-69
2024/03/24 12:31:50;;;;;;;13.18;2.58;;;19.70;75.30;;;;;;5032434;28;20036;-72
2024/03/24 12:34:18;;;;;;;17.70;2.85;;;19.70;75.20;;;;;;5052236;28;20036;-68
2024/03/24 12:36:44;;;;;;;6.35;2.30;;;19.70;75.30;;;;;;5052370;28;20078;-67
2024/03/24 12:39:10;;;;;;;8.30;2.38;;;19.70;75.10;;;;;;5052322;28;20615;-66